sensor_id;sensor_type;location;lat;lon;timestamp;pressure;altitude;pressure_sealevel;temperature;humidity
80116;BME280;69423;47.608;19.366;2023-04-28T00:00:28;99435.50;;;3.56;69.58
80116;BME280;69423;47.608;19.366;2023-04-28T00:00:59;99438.97;;;3.57;70.40
80116;BME280;69423;47.608;19.366;2023-04-28T00:01:30;99442.88;;;3.62;69.85
80116;BME280;69423;47.608;19.366;2023-04-28T00:02:00;99434.03;;;3.63;69.54
80116;BME280;69423;47.608;19.366;2023-04-28T00:02:31;99434.75;;;3.65;69.47
80116;BME280;69423;47.608;19.366;2023-04-28T00:03:03;99432.09;;;3.65;70.12
80116;BME280;69423;47.608;19.366;2023-04-28T00:03:34;99428.63;;;3.65;69.78
80116;BME280;69423;47.608;19.366;2023-04-28T00:04:06;99437.50;;;3.64;69.78
80116;BME280;69423;47.608;19.366;2023-04-28T00:04:37;99436.66;;;3.63;70.30
80116;BME280;69423;47.608;19.366;2023-04-28T00:05:08;99434.75;;;3.65;69.96
80116;BME280;69423;47.608;19.366;2023-04-28T00:05:39;99437.25;;;3.67;69.90
80116;BME280;69423;47.608;19.366;2023-04-28T00:06:10;99442.53;;;3.67;70.69
80116;BME280;69423;47.608;19.366;2023-04-28T00:06:41;99443.47;;;3.66;70.38
80116;BME280;69423;47.608;19.366;2023-04-28T00:07:12;99436.41;;;3.67;69.80
80116;BME280;69423;47.608;19.366;2023-04-28T00:07:43;99435.44;;;3.68;70.32
80116;BME280;69423;47.608;19.366;2023-04-28T00:08:14;99438.69;;;3.71;70.85
80116;BME280;69423;47.608;19.366;2023-04-28T00:08:45;99436.03;;;3.71;70.77
80116;BME280;69423;47.608;19.366;2023-04-28T00:09:16;99443.59;;;3.64;70.07
80116;BME280;69423;47.608;19.366;2023-04-28T00:09:46;99439.31;;;3.63;69.59
80116;BME280;69423;47.608;19.366;2023-04-28T00:10:17;99444.88;;;3.49;69.68
80116;BME280;69423;47.608;19.366;2023-04-28T00:10:48;99440.38;;;3.40;70.27
80116;BME280;69423;47.608;19.366;2023-04-28T00:11:19;99442.53;;;3.35;70.45
80116;BME280;69423;47.608;19.366;2023-04-28T00:11:50;99444.56;;;3.31;70.73
80116;BME280;69423;47.608;19.366;2023-04-28T00:12:21;99446.03;;;3.24;70.66
80116;BME280;69423;47.608;19.366;2023-04-28T00:12:52;99443.78;;;3.19;70.59
80116;BME280;69423;47.608;19.366;2023-04-28T00:13:22;99441.75;;;3.12;70.36
80116;BME280;69423;47.608;19.366;2023-04-28T00:13:53;99442.34;;;3.04;70.60
80116;BME280;69423;47.608;19.366;2023-04-28T00:14:24;99442.00;;;2.97;70.48
80116;BME280;69423;47.608;19.366;2023-04-28T00:14:55;99450.41;;;2.91;70.80
80116;BME280;69423;47.608;19.366;2023-04-28T00:15:26;99438.44;;;2.87;70.67
80116;BME280;69423;47.608;19.366;2023-04-28T00:15:57;99437.88;;;2.83;70.79
80116;BME280;69423;47.608;19.366;2023-04-28T00:16:29;99442.03;;;2.86;70.56
80116;BME280;69423;47.608;19.366;2023-04-28T00:17:00;99445.13;;;2.91;70.60
80116;BME280;69423;47.608;19.366;2023-04-28T00:17:32;99443.94;;;2.95;70.45
80116;BME280;69423;47.608;19.366;2023-04-28T00:18:03;99438.22;;;2.90;70.39
80116;BME280;69423;47.608;19.366;2023-04-28T00:18:34;99443.38;;;2.92;70.39
80116;BME280;69423;47.608;19.366;2023-04-28T00:19:05;99443.47;;;2.90;70.58
80116;BME280;69423;47.608;19.366;2023-04-28T00:19:37;99439.28;;;2.88;70.61
80116;BME280;69423;47.608;19.366;2023-04-28T00:20:08;99443.13;;;2.83;70.78
80116;BME280;69423;47.608;19.366;2023-04-28T00:20:39;99443.84;;;2.86;70.93
80116;BME280;69423;47.608;19.366;2023-04-28T00:21:11;99452.31;;;2.89;71.06
80116;BME280;69423;47.608;19.366;2023-04-28T00:21:41;99442.38;;;2.93;71.37
80116;BME280;69423;47.608;19.366;2023-04-28T00:22:12;99445.47;;;2.98;70.95
80116;BME280;69423;47.608;19.366;2023-04-28T00:22:44;99443.22;;;3.04;71.42
80116;BME280;69423;47.608;19.366;2023-04-28T00:23:16;99448.47;;;3.04;71.03
80116;BME280;69423;47.608;19.366;2023-04-28T00:23:46;99441.28;;;3.07;71.34
80116;BME280;69423;47.608;19.366;2023-04-28T00:24:17;99444.50;;;3.10;71.17
80116;BME280;69423;47.608;19.366;2023-04-28T00:24:48;99435.38;;;3.14;71.08
80116;BME280;69423;47.608;19.366;2023-04-28T00:25:19;99448.56;;;3.14;71.17
80116;BME280;69423;47.608;19.366;2023-04-28T00:25:54;99439.38;;;3.09;70.67
80116;BME280;69423;47.608;19.366;2023-04-28T00:26:26;99447.50;;;3.06;71.03
80116;BME280;69423;47.608;19.366;2023-04-28T00:26:57;99448.34;;;3.06;71.31
80116;BME280;69423;47.608;19.366;2023-04-28T00:27:28;99450.38;;;3.14;71.22
80116;BME280;69423;47.608;19.366;2023-04-28T00:27:58;99447.00;;;3.12;71.02
80116;BME280;69423;47.608;19.366;2023-04-28T00:28:29;99445.84;;;3.04;70.94
80116;BME280;69423;47.608;19.366;2023-04-28T00:29:00;99451.34;;;3.01;70.88
80116;BME280;69423;47.608;19.366;2023-04-28T00:29:31;99446.69;;;3.05;71.38
80116;BME280;69423;47.608;19.366;2023-04-28T00:30:02;99445.59;;;3.08;71.24
80116;BME280;69423;47.608;19.366;2023-04-28T00:30:33;99447.88;;;3.01;71.49
80116;BME280;69423;47.608;19.366;2023-04-28T00:31:12;99453.97;;;3.01;71.53
80116;BME280;69423;47.608;19.366;2023-04-28T00:31:45;99451.56;;;3.10;71.66
80116;BME280;69423;47.608;19.366;2023-04-28T00:32:16;99447.72;;;3.14;71.77
80116;BME280;69423;47.608;19.366;2023-04-28T00:32:46;99445.69;;;3.17;71.21
80116;BME280;69423;47.608;19.366;2023-04-28T00:33:17;99458.28;;;3.14;71.16
80116;BME280;69423;47.608;19.366;2023-04-28T00:33:48;99460.69;;;3.06;71.02
80116;BME280;69423;47.608;19.366;2023-04-28T00:34:19;99455.06;;;2.99;71.39
80116;BME280;69423;47.608;19.366;2023-04-28T00:34:50;99457.94;;;2.96;71.69
80116;BME280;69423;47.608;19.366;2023-04-28T00:35:21;99457.47;;;2.91;71.85
80116;BME280;69423;47.608;19.366;2023-04-28T00:35:59;99451.72;;;2.97;71.07
80116;BME280;69423;47.608;19.366;2023-04-28T00:36:30;99452.44;;;2.99;70.87
80116;BME280;69423;47.608;19.366;2023-04-28T00:37:03;99457.44;;;3.02;71.48
80116;BME280;69423;47.608;19.366;2023-04-28T00:37:38;99450.84;;;3.08;71.16
80116;BME280;69423;47.608;19.366;2023-04-28T00:38:09;99451.34;;;3.13;71.66
80116;BME280;69423;47.608;19.366;2023-04-28T00:38:40;99448.22;;;3.19;71.20
80116;BME280;69423;47.608;19.366;2023-04-28T00:39:10;99451.69;;;3.19;71.35
80116;BME280;69423;47.608;19.366;2023-04-28T00:39:41;99452.50;;;3.20;71.16
80116;BME280;69423;47.608;19.366;2023-04-28T00:40:16;99450.47;;;3.23;70.83
80116;BME280;69423;47.608;19.366;2023-04-28T00:40:47;99449.38;;;3.26;70.16
80116;BME280;69423;47.608;19.366;2023-04-28T00:41:18;99450.22;;;3.27;70.04
80116;BME280;69423;47.608;19.366;2023-04-28T00:41:49;99452.00;;;3.26;70.09
80116;BME280;69423;47.608;19.366;2023-04-28T00:42:19;99450.59;;;3.22;69.92
80116;BME280;69423;47.608;19.366;2023-04-28T00:42:51;99448.66;;;3.24;69.71
80116;BME280;69423;47.608;19.366;2023-04-28T00:43:21;99457.03;;;3.29;69.50
80116;BME280;69423;47.608;19.366;2023-04-28T00:43:52;99452.22;;;3.34;69.17
80116;BME280;69423;47.608;19.366;2023-04-28T00:44:23;99444.44;;;3.33;68.77
80116;BME280;69423;47.608;19.366;2023-04-28T00:44:54;99453.19;;;3.33;69.07
80116;BME280;69423;47.608;19.366;2023-04-28T00:45:25;99450.53;;;3.33;69.10
80116;BME280;69423;47.608;19.366;2023-04-28T00:45:56;99454.38;;;3.29;69.10
80116;BME280;69423;47.608;19.366;2023-04-28T00:46:29;99451.53;;;3.32;68.97
80116;BME280;69423;47.608;19.366;2023-04-28T00:47:01;99449.13;;;3.29;68.78
80116;BME280;69423;47.608;19.366;2023-04-28T00:47:36;99454.38;;;3.29;68.91
80116;BME280;69423;47.608;19.366;2023-04-28T00:48:07;99443.72;;;3.31;69.48
80116;BME280;69423;47.608;19.366;2023-04-28T00:48:38;99440.97;;;3.32;69.43
80116;BME280;69423;47.608;19.366;2023-04-28T00:49:09;99449.97;;;3.30;69.38
80116;BME280;69423;47.608;19.366;2023-04-28T00:49:40;99442.19;;;3.28;69.85
80116;BME280;69423;47.608;19.366;2023-04-28T00:50:11;99444.38;;;3.23;69.48
80116;BME280;69423;47.608;19.366;2023-04-28T00:50:46;99443.00;;;3.29;69.01
80116;BME280;69423;47.608;19.366;2023-04-28T00:51:17;99446.47;;;3.29;68.91
80116;BME280;69423;47.608;19.366;2023-04-28T00:51:48;99451.63;;;3.31;68.43
80116;BME280;69423;47.608;19.366;2023-04-28T00:52:19;99442.78;;;3.32;68.28
80116;BME280;69423;47.608;19.366;2023-04-28T00:52:53;99439.28;;;3.31;68.28
80116;BME280;69423;47.608;19.366;2023-04-28T00:53:24;99446.13;;;3.34;68.32
80116;BME280;69423;47.608;19.366;2023-04-28T00:53:56;99445.75;;;3.38;68.34
80116;BME280;69423;47.608;19.366;2023-04-28T00:54:27;99449.81;;;3.42;68.53
80116;BME280;69423;47.608;19.366;2023-04-28T00:54:58;99454.25;;;3.42;68.36
80116;BME280;69423;47.608;19.366;2023-04-28T00:55:31;99442.84;;;3.41;68.77
80116;BME280;69423;47.608;19.366;2023-04-28T00:56:04;99447.78;;;3.46;69.08
80116;BME280;69423;47.608;19.366;2023-04-28T00:56:36;99446.19;;;3.43;68.86
80116;BME280;69423;47.608;19.366;2023-04-28T00:57:08;99444.28;;;3.45;69.29
80116;BME280;69423;47.608;19.366;2023-04-28T00:57:40;99439.72;;;3.48;69.18
80116;BME280;69423;47.608;19.366;2023-04-28T00:58:11;99454.31;;;3.52;69.24
80116;BME280;69423;47.608;19.366;2023-04-28T00:58:42;99444.75;;;3.51;68.80
80116;BME280;69423;47.608;19.366;2023-04-28T00:59:13;99449.31;;;3.49;68.75
80116;BME280;69423;47.608;19.366;2023-04-28T00:59:44;99453.59;;;3.50;69.32
80116;BME280;69423;47.608;19.366;2023-04-28T01:00:15;99444.03;;;3.49;68.64
80116;BME280;69423;47.608;19.366;2023-04-28T01:00:46;99448.34;;;3.50;69.11
80116;BME280;69423;47.608;19.366;2023-04-28T01:01:17;99447.13;;;3.54;68.78
80116;BME280;69423;47.608;19.366;2023-04-28T01:01:48;99449.53;;;3.57;68.51
80116;BME280;69423;47.608;19.366;2023-04-28T01:02:19;99444.25;;;3.57;67.96
80116;BME280;69423;47.608;19.366;2023-04-28T01:02:51;99445.06;;;3.57;67.83
80116;BME280;69423;47.608;19.366;2023-04-28T01:03:23;99449.25;;;3.60;67.50
80116;BME280;69423;47.608;19.366;2023-04-28T01:03:54;99448.16;;;3.62;66.65
80116;BME280;69423;47.608;19.366;2023-04-28T01:04:25;99449.84;;;3.63;66.31
80116;BME280;69423;47.608;19.366;2023-04-28T01:04:59;99450.56;;;3.65;65.39
80116;BME280;69423;47.608;19.366;2023-04-28T01:05:31;99444.19;;;3.68;65.19
80116;BME280;69423;47.608;19.366;2023-04-28T01:06:05;99450.28;;;3.69;65.52
80116;BME280;69423;47.608;19.366;2023-04-28T01:06:37;99447.53;;;3.70;66.17
80116;BME280;69423;47.608;19.366;2023-04-28T01:07:08;99449.94;;;3.73;66.50
80116;BME280;69423;47.608;19.366;2023-04-28T01:07:39;99445.38;;;3.75;66.92
80116;BME280;69423;47.608;19.366;2023-04-28T01:08:10;99448.97;;;3.74;67.21
80116;BME280;69423;47.608;19.366;2023-04-28T01:08:41;99448.00;;;3.75;66.89
80116;BME280;69423;47.608;19.366;2023-04-28T01:09:13;99446.44;;;3.73;67.14
80116;BME280;69423;47.608;19.366;2023-04-28T01:09:44;99447.31;;;3.73;66.76
80116;BME280;69423;47.608;19.366;2023-04-28T01:10:17;99448.63;;;3.68;67.05
80116;BME280;69423;47.608;19.366;2023-04-28T01:10:48;99447.66;;;3.69;66.51
80116;BME280;69423;47.608;19.366;2023-04-28T01:11:19;99450.28;;;3.69;67.04
80116;BME280;69423;47.608;19.366;2023-04-28T01:11:50;99444.19;;;3.68;66.77
80116;BME280;69423;47.608;19.366;2023-04-28T01:12:21;99445.72;;;3.71;67.29
80116;BME280;69423;47.608;19.366;2023-04-28T01:12:52;99448.25;;;3.72;66.89
80116;BME280;69423;47.608;19.366;2023-04-28T01:13:23;99441.16;;;3.73;66.76
80116;BME280;69423;47.608;19.366;2023-04-28T01:13:54;99445.59;;;3.72;67.01
80116;BME280;69423;47.608;19.366;2023-04-28T01:14:26;99449.94;;;3.73;67.04
80116;BME280;69423;47.608;19.366;2023-04-28T01:14:58;99449.78;;;3.75;66.46
80116;BME280;69423;47.608;19.366;2023-04-28T01:15:29;99451.72;;;3.73;66.95
80116;BME280;69423;47.608;19.366;2023-04-28T01:16:00;99449.06;;;3.73;66.70
80116;BME280;69423;47.608;19.366;2023-04-28T01:16:32;99448.97;;;3.74;66.66
80116;BME280;69423;47.608;19.366;2023-04-28T01:17:03;99445.59;;;3.72;66.64
80116;BME280;69423;47.608;19.366;2023-04-28T01:17:34;99444.66;;;3.73;66.39
80116;BME280;69423;47.608;19.366;2023-04-28T01:18:05;99445.38;;;3.75;67.06
80116;BME280;69423;47.608;19.366;2023-04-28T01:18:37;99442.59;;;3.77;67.45
80116;BME280;69423;47.608;19.366;2023-04-28T01:19:19;99441.50;;;3.79;67.29
80116;BME280;69423;47.608;19.366;2023-04-28T01:19:51;99456.63;;;3.77;67.35
80116;BME280;69423;47.608;19.366;2023-04-28T01:20:22;99450.66;;;3.75;67.55
80116;BME280;69423;47.608;19.366;2023-04-28T01:20:53;99443.44;;;3.77;67.75
80116;BME280;69423;47.608;19.366;2023-04-28T01:21:25;99452.31;;;3.76;67.41
80116;BME280;69423;47.608;19.366;2023-04-28T01:21:57;99446.09;;;3.77;67.26
80116;BME280;69423;47.608;19.366;2023-04-28T01:22:28;99450.38;;;3.78;67.52
80116;BME280;69423;47.608;19.366;2023-04-28T01:22:59;99441.50;;;3.79;67.98
80116;BME280;69423;47.608;19.366;2023-04-28T01:23:30;99446.53;;;3.82;67.84
80116;BME280;69423;47.608;19.366;2023-04-28T01:24:01;99450.13;;;3.81;68.21
80116;BME280;69423;47.608;19.366;2023-04-28T01:24:32;99445.38;;;3.75;67.60
80116;BME280;69423;47.608;19.366;2023-04-28T01:25:03;99445.88;;;3.69;67.61
80116;BME280;69423;47.608;19.366;2023-04-28T01:25:34;99443.94;;;3.71;67.94
80116;BME280;69423;47.608;19.366;2023-04-28T01:26:05;99445.50;;;3.74;68.51
80116;BME280;69423;47.608;19.366;2023-04-28T01:26:36;99446.44;;;3.73;68.14
80116;BME280;69423;47.608;19.366;2023-04-28T01:27:06;99438.09;;;3.68;68.66
80116;BME280;69423;47.608;19.366;2023-04-28T01:27:37;99443.25;;;3.69;68.31
80116;BME280;69423;47.608;19.366;2023-04-28T01:28:09;99445.03;;;3.69;68.40
80116;BME280;69423;47.608;19.366;2023-04-28T01:28:40;99444.19;;;3.68;68.49
80116;BME280;69423;47.608;19.366;2023-04-28T01:29:11;99443.94;;;3.71;68.72
80116;BME280;69423;47.608;19.366;2023-04-28T01:29:42;99447.53;;;3.70;68.86
80116;BME280;69423;47.608;19.366;2023-04-28T01:30:13;99449.22;;;3.71;68.63
80116;BME280;69423;47.608;19.366;2023-04-28T01:30:44;99448.25;;;3.72;68.72
80116;BME280;69423;47.608;19.366;2023-04-28T01:31:15;99449.94;;;3.73;68.87
80116;BME280;69423;47.608;19.366;2023-04-28T01:31:46;99444.78;;;3.72;68.65
80116;BME280;69423;47.608;19.366;2023-04-28T01:32:17;99450.50;;;3.77;69.19
80116;BME280;69423;47.608;19.366;2023-04-28T01:32:48;99452.91;;;3.80;68.42
80116;BME280;69423;47.608;19.366;2023-04-28T01:33:19;99449.44;;;3.79;67.21
80116;BME280;69423;47.608;19.366;2023-04-28T01:33:50;99446.78;;;3.79;67.15
80116;BME280;69423;47.608;19.366;2023-04-28T01:34:21;99452.31;;;3.76;67.10
80116;BME280;69423;47.608;19.366;2023-04-28T01:34:52;99444.16;;;3.79;66.77
80116;BME280;69423;47.608;19.366;2023-04-28T01:35:22;99445.09;;;3.78;67.24
80116;BME280;69423;47.608;19.366;2023-04-28T01:35:56;99454.00;;;3.77;67.39
80116;BME280;69423;47.608;19.366;2023-04-28T01:36:28;99450.13;;;3.81;67.44
80116;BME280;69423;47.608;19.366;2023-04-28T01:36:59;99451.78;;;3.82;67.59
80116;BME280;69423;47.608;19.366;2023-04-28T01:37:30;99447.34;;;3.83;67.57
80116;BME280;69423;47.608;19.366;2023-04-28T01:38:01;99454.44;;;3.82;67.76
80116;BME280;69423;47.608;19.366;2023-04-28T01:38:32;99451.78;;;3.82;67.76
80116;BME280;69423;47.608;19.366;2023-04-28T01:39:03;99447.09;;;3.86;66.98
80116;BME280;69423;47.608;19.366;2023-04-28T01:39:34;99449.44;;;3.79;66.82
80116;BME280;69423;47.608;19.366;2023-04-28T01:40:06;99455.66;;;3.78;66.61
80116;BME280;69423;47.608;19.366;2023-04-28T01:40:37;99452.31;;;3.76;66.70
80116;BME280;69423;47.608;19.366;2023-04-28T01:41:08;99447.03;;;3.76;66.63
80116;BME280;69423;47.608;19.366;2023-04-28T01:41:39;99455.22;;;3.73;66.85
80116;BME280;69423;47.608;19.366;2023-04-28T01:42:10;99447.31;;;3.73;66.69
80116;BME280;69423;47.608;19.366;2023-04-28T01:42:41;99449.47;;;3.68;66.21
80116;BME280;69423;47.608;19.366;2023-04-28T01:43:12;99450.19;;;3.70;66.17
80116;BME280;69423;47.608;19.366;2023-04-28T01:43:43;99450.69;;;3.64;66.33
80116;BME280;69423;47.608;19.366;2023-04-28T01:44:14;99446.50;;;3.61;65.96
80116;BME280;69423;47.608;19.366;2023-04-28T01:44:45;99447.47;;;3.60;66.30
80116;BME280;69423;47.608;19.366;2023-04-28T01:45:15;99443.28;;;3.58;66.15
80116;BME280;69423;47.608;19.366;2023-04-28T01:45:46;99445.91;;;3.58;66.83
80116;BME280;69423;47.608;19.366;2023-04-28T01:46:17;99439.91;;;3.56;67.87
80116;BME280;69423;47.608;19.366;2023-04-28T01:46:48;99446.78;;;3.58;68.53
80116;BME280;69423;47.608;19.366;2023-04-28T01:47:19;99443.97;;;3.60;68.22
80116;BME280;69423;47.608;19.366;2023-04-28T01:47:50;99441.22;;;3.61;68.10
80116;BME280;69423;47.608;19.366;2023-04-28T01:48:21;99438.84;;;3.58;68.22
80116;BME280;69423;47.608;19.366;2023-04-28T01:48:52;99437.44;;;3.54;67.99
80116;BME280;69423;47.608;19.366;2023-04-28T01:49:23;99447.63;;;3.48;67.67
80116;BME280;69423;47.608;19.366;2023-04-28T01:49:54;99444.28;;;3.45;67.83
80116;BME280;69423;47.608;19.366;2023-04-28T01:50:25;99431.25;;;3.44;67.59
80116;BME280;69423;47.608;19.366;2023-04-28T01:50:55;99435.66;;;3.43;67.59
80116;BME280;69423;47.608;19.366;2023-04-28T01:51:26;99433.88;;;3.44;66.99
80116;BME280;69423;47.608;19.366;2023-04-28T01:51:57;99445.25;;;3.44;67.12
80116;BME280;69423;47.608;19.366;2023-04-28T01:52:28;99433.88;;;3.44;67.15
80116;BME280;69423;47.608;19.366;2023-04-28T01:52:59;99441.06;;;3.42;67.14
80116;BME280;69423;47.608;19.366;2023-04-28T01:53:30;99438.66;;;3.39;67.24
80116;BME280;69423;47.608;19.366;2023-04-28T01:54:01;99445.03;;;3.36;67.40
80116;BME280;69423;47.608;19.366;2023-04-28T01:54:32;99436.31;;;3.36;67.74
80116;BME280;69423;47.608;19.366;2023-04-28T01:55:03;99444.31;;;3.34;67.48
80116;BME280;69423;47.608;19.366;2023-04-28T01:55:34;99433.06;;;3.32;67.77
80116;BME280;69423;47.608;19.366;2023-04-28T01:56:05;99438.56;;;3.29;67.27
80116;BME280;69423;47.608;19.366;2023-04-28T01:56:35;99443.28;;;3.26;67.31
80116;BME280;69423;47.608;19.366;2023-04-28T01:57:06;99440.16;;;3.20;68.02
80116;BME280;69423;47.608;19.366;2023-04-28T01:57:37;99439.94;;;3.12;68.73
80116;BME280;69423;47.608;19.366;2023-04-28T01:58:08;99445.34;;;3.11;68.76
80116;BME280;69423;47.608;19.366;2023-04-28T01:58:39;99449.75;;;3.10;68.42
80116;BME280;69423;47.608;19.366;2023-04-28T01:59:10;99443.66;;;3.10;69.05
80116;BME280;69423;47.608;19.366;2023-04-28T01:59:41;99441.41;;;3.05;70.13
80116;BME280;69423;47.608;19.366;2023-04-28T02:00:12;99440.81;;;3.01;70.33
80116;BME280;69423;47.608;19.366;2023-04-28T02:00:43;99447.06;;;3.00;69.65
80116;BME280;69423;47.608;19.366;2023-04-28T02:01:14;99439.25;;;2.99;69.01
80116;BME280;69423;47.608;19.366;2023-04-28T02:01:44;99440.84;;;2.90;69.29
80116;BME280;69423;47.608;19.366;2023-04-28T02:02:15;99435.09;;;2.85;70.03
80116;BME280;69423;47.608;19.366;2023-04-28T02:02:46;99441.22;;;2.86;70.11
80116;BME280;69423;47.608;19.366;2023-04-28T02:03:17;99439.53;;;2.84;70.09
80116;BME280;69423;47.608;19.366;2023-04-28T02:03:48;99436.16;;;2.82;70.29
80116;BME280;69423;47.608;19.366;2023-04-28T02:04:19;99445.88;;;2.82;70.19
80116;BME280;69423;47.608;19.366;2023-04-28T02:04:50;99447.53;;;2.83;70.45
80116;BME280;69423;47.608;19.366;2023-04-28T02:05:21;99446.59;;;2.84;71.15
80116;BME280;69423;47.608;19.366;2023-04-28T02:05:53;99441.78;;;2.89;71.08
80116;BME280;69423;47.608;19.366;2023-04-28T02:06:23;99440.84;;;2.90;70.95
80116;BME280;69423;47.608;19.366;2023-04-28T02:06:54;99440.72;;;2.92;70.99
80116;BME280;69423;47.608;19.366;2023-04-28T02:07:25;99445.28;;;2.90;70.94
80116;BME280;69423;47.608;19.366;2023-04-28T02:07:56;99443.59;;;2.89;70.80
80116;BME280;69423;47.608;19.366;2023-04-28T02:08:27;99438.44;;;2.87;70.84
80116;BME280;69423;47.608;19.366;2023-04-28T02:08:58;99441.94;;;2.88;70.29
80116;BME280;69423;47.608;19.366;2023-04-28T02:09:29;99438.59;;;2.86;70.04
80116;BME280;69423;47.608;19.366;2023-04-28T02:09:59;99446.59;;;2.84;69.80
80116;BME280;69423;47.608;19.366;2023-04-28T02:10:30;99445.63;;;2.85;69.85
80116;BME280;69423;47.608;19.366;2023-04-28T02:11:02;99446.97;;;2.79;69.47
80116;BME280;69423;47.608;19.366;2023-04-28T02:11:33;99445.28;;;2.78;69.81
80116;BME280;69423;47.608;19.366;2023-04-28T02:12:04;99447.91;;;2.78;70.03
80116;BME280;69423;47.608;19.366;2023-04-28T02:12:35;99442.63;;;2.78;70.09
80116;BME280;69423;47.608;19.366;2023-04-28T02:13:06;99456.19;;;2.74;69.96
80116;BME280;69423;47.608;19.366;2023-04-28T02:13:37;99458.47;;;2.67;70.45
80116;BME280;69423;47.608;19.366;2023-04-28T02:14:08;99455.09;;;2.65;70.29
80116;BME280;69423;47.608;19.366;2023-04-28T02:14:39;99451.97;;;2.60;70.52
80116;BME280;69423;47.608;19.366;2023-04-28T02:15:10;99458.59;;;2.54;70.84
80116;BME280;69423;47.608;19.366;2023-04-28T02:15:41;99456.16;;;2.51;70.92
80116;BME280;69423;47.608;19.366;2023-04-28T02:16:12;99445.66;;;2.40;71.46
80116;BME280;69423;47.608;19.366;2023-04-28T02:16:43;99453.19;;;2.45;70.90
80116;BME280;69423;47.608;19.366;2023-04-28T02:17:14;99449.72;;;2.44;70.41
80116;BME280;69423;47.608;19.366;2023-04-28T02:17:45;99457.72;;;2.42;70.85
80116;BME280;69423;47.608;19.366;2023-04-28T02:18:16;99459.53;;;2.42;70.73
80116;BME280;69423;47.608;19.366;2023-04-28T02:18:47;99454.97;;;2.33;70.70
80116;BME280;69423;47.608;19.366;2023-04-28T02:19:17;99456.88;;;2.31;70.67
80116;BME280;69423;47.608;19.366;2023-04-28T02:19:53;99454.25;;;2.31;71.06
80116;BME280;69423;47.608;19.366;2023-04-28T02:20:26;99456.88;;;2.31;71.32
80116;BME280;69423;47.608;19.366;2023-04-28T02:20:57;99457.69;;;2.31;71.43
80116;BME280;69423;47.608;19.366;2023-04-28T02:21:28;99463.47;;;2.25;71.37
80116;BME280;69423;47.608;19.366;2023-04-28T02:21:58;99453.25;;;2.20;71.60
80116;BME280;69423;47.608;19.366;2023-04-28T02:22:29;99460.44;;;2.18;71.89
80116;BME280;69423;47.608;19.366;2023-04-28T02:23:00;99457.59;;;2.21;71.59
80116;BME280;69423;47.608;19.366;2023-04-28T02:23:31;99453.41;;;2.19;71.57
80116;BME280;69423;47.608;19.366;2023-04-28T02:24:02;99464.75;;;2.19;72.15
80116;BME280;69423;47.608;19.366;2023-04-28T02:24:34;99468.13;;;2.21;71.41
80116;BME280;69423;47.608;19.366;2023-04-28T02:25:07;99454.97;;;2.21;70.57
80116;BME280;69423;47.608;19.366;2023-04-28T02:25:38;99456.25;;;2.16;70.90
80116;BME280;69423;47.608;19.366;2023-04-28T02:26:09;99460.91;;;2.12;72.21
80116;BME280;69423;47.608;19.366;2023-04-28T02:26:40;99463.31;;;2.15;71.55
80116;BME280;69423;47.608;19.366;2023-04-28T02:27:11;99457.19;;;2.03;71.94
80116;BME280;69423;47.608;19.366;2023-04-28T02:27:43;99464.69;;;1.97;72.56
80116;BME280;69423;47.608;19.366;2023-04-28T02:28:13;99461.59;;;1.92;72.50
80116;BME280;69423;47.608;19.366;2023-04-28T02:28:44;99466.97;;;1.90;72.53
80116;BME280;69423;47.608;19.366;2023-04-28T02:29:15;99467.34;;;1.97;72.35
80116;BME280;69423;47.608;19.366;2023-04-28T02:29:46;99461.81;;;2.00;72.19
80116;BME280;69423;47.608;19.366;2023-04-28T02:30:17;99458.16;;;2.02;72.28
80116;BME280;69423;47.608;19.366;2023-04-28T02:30:48;99461.63;;;2.03;72.11
80116;BME280;69423;47.608;19.366;2023-04-28T02:31:19;99453.00;;;2.01;71.55
80116;BME280;69423;47.608;19.366;2023-04-28T02:31:49;99453.81;;;2.01;71.92
80116;BME280;69423;47.608;19.366;2023-04-28T02:32:20;99459.81;;;2.03;72.23
80116;BME280;69423;47.608;19.366;2023-04-28T02:32:51;99457.06;;;2.05;71.81
80116;BME280;69423;47.608;19.366;2023-04-28T02:33:22;99461.63;;;2.03;71.78
80116;BME280;69423;47.608;19.366;2023-04-28T02:33:53;99466.25;;;1.99;72.31
80116;BME280;69423;47.608;19.366;2023-04-28T02:34:24;99454.19;;;1.97;72.50
80116;BME280;69423;47.608;19.366;2023-04-28T02:34:55;99454.19;;;1.97;72.49
80116;BME280;69423;47.608;19.366;2023-04-28T02:35:26;99465.53;;;1.97;72.44
80116;BME280;69423;47.608;19.366;2023-04-28T02:36:00;99463.38;;;1.91;72.91
80116;BME280;69423;47.608;19.366;2023-04-28T02:36:31;99459.06;;;1.90;72.90
80116;BME280;69423;47.608;19.366;2023-04-28T02:37:02;99463.03;;;1.96;72.94
80116;BME280;69423;47.608;19.366;2023-04-28T02:37:33;99453.34;;;1.96;73.00
80116;BME280;69423;47.608;19.366;2023-04-28T02:38:04;99465.44;;;1.99;73.61
80116;BME280;69423;47.608;19.366;2023-04-28T02:38:35;99456.47;;;2.01;73.50
80116;BME280;69423;47.608;19.366;2023-04-28T02:39:06;99457.44;;;2.00;72.95
80116;BME280;69423;47.608;19.366;2023-04-28T02:39:37;99455.84;;;1.98;73.14
80116;BME280;69423;47.608;19.366;2023-04-28T02:40:09;99464.94;;;1.94;73.02
80116;BME280;69423;47.608;19.366;2023-04-28T02:40:40;99466.50;;;1.96;73.21
80116;BME280;69423;47.608;19.366;2023-04-28T02:41:11;99465.78;;;1.94;73.60
80116;BME280;69423;47.608;19.366;2023-04-28T02:41:43;99461.81;;;1.89;73.50
80116;BME280;69423;47.608;19.366;2023-04-28T02:42:14;99462.44;;;1.92;73.48
80116;BME280;69423;47.608;19.366;2023-04-28T02:42:45;99450.00;;;1.94;73.06
80116;BME280;69423;47.608;19.366;2023-04-28T02:43:16;99464.69;;;1.97;72.82
80116;BME280;69423;47.608;19.366;2023-04-28T02:43:47;99457.28;;;1.91;72.55
80116;BME280;69423;47.608;19.366;2023-04-28T02:44:18;99462.78;;;1.88;72.17
80116;BME280;69423;47.608;19.366;2023-04-28T02:44:50;99458.34;;;1.88;73.12
80116;BME280;69423;47.608;19.366;2023-04-28T02:45:20;99466.13;;;1.90;73.29
80116;BME280;69423;47.608;19.366;2023-04-28T02:45:52;99465.16;;;1.91;73.43